createdAt,value
2022-09-15T00:00:10.159Z,42.00
2022-09-15T00:00:20.026Z,42.70
2022-09-15T00:00:29.999Z,43.90
2022-09-15T00:00:40.028Z,43.20
2022-09-15T00:00:50.013Z,40.00
2022-09-15T00:00:59.997Z,38.50
2022-09-15T00:01:10.034Z,37.40
2022-09-15T00:01:20.060Z,41.30
2022-09-15T00:01:30.057Z,40.70
2022-09-15T00:01:40.192Z,47.80
2022-09-15T00:01:50.072Z,44.40
2022-09-15T00:02:00.196Z,54.10
2022-09-15T00:02:10.239Z,56.50
2022-09-15T00:02:21.056Z,48.20
2022-09-15T00:02:30.106Z,48.80
2022-09-15T00:02:40.108Z,44.80
2022-09-15T00:02:50.071Z,46.40
2022-09-15T00:03:00.035Z,40.60
2022-09-15T00:03:10.094Z,38.70
2022-09-15T00:03:20.072Z,35.60
2022-09-15T00:03:29.994Z,36.00
2022-09-15T00:03:39.985Z,35.30
2022-09-15T00:03:50.116Z,37.90
2022-09-15T00:03:59.981Z,37.50
2022-09-15T00:04:10.004Z,39.90
2022-09-15T00:04:19.984Z,40.90
2022-09-15T00:04:30.019Z,44.30
2022-09-15T00:04:39.989Z,42.10
2022-09-15T00:04:50.005Z,42.20
2022-09-15T00:04:59.976Z,45.50
2022-09-15T00:05:09.985Z,52.30
2022-09-15T00:05:20.022Z,47.10
2022-09-15T00:05:30.926Z,45.80
2022-09-15T00:05:40.030Z,42.10
2022-09-15T00:05:49.994Z,44.60
2022-09-15T00:05:59.990Z,44.80
2022-09-15T00:06:10.041Z,54.90
2022-09-15T00:06:19.999Z,58.30
2022-09-15T00:06:29.989Z,55.80
2022-09-15T00:06:39.965Z,52.40
2022-09-15T00:06:49.995Z,55.90
2022-09-15T00:06:59.968Z,64.40
2022-09-15T00:07:10.094Z,59.80
2022-09-15T00:07:19.970Z,50.90
2022-09-15T00:07:29.972Z,49.60
2022-09-15T00:07:39.977Z,54.60
2022-09-15T00:07:50.014Z,58.70
2022-09-15T00:07:59.967Z,56.50
2022-09-15T00:08:09.978Z,51.50
2022-09-15T00:08:21.010Z,59.40
2022-09-15T00:08:29.962Z,54.40
2022-09-15T00:08:39.956Z,51.50
2022-09-15T00:08:49.986Z,48.80
2022-09-15T00:08:59.951Z,60.50
2022-09-15T00:09:09.963Z,67.60
2022-09-15T00:09:19.953Z,66.70
2022-09-15T00:09:29.957Z,58.90
2022-09-15T00:09:39.993Z,50.90
2022-09-15T00:09:49.958Z,43.40
2022-09-15T00:09:59.965Z,45.40
2022-09-15T00:10:09.955Z,52.70
2022-09-15T00:10:19.975Z,63.70
2022-09-15T00:10:30.031Z,56.90
2022-09-15T00:10:39.975Z,56.90
2022-09-15T00:10:49.958Z,54.50
2022-09-15T00:10:59.962Z,60.60
2022-09-15T00:11:09.954Z,65.60
2022-09-15T00:11:19.962Z,62.30
2022-09-15T00:11:29.944Z,69.70
2022-09-15T00:11:39.951Z,60.00
2022-09-15T00:11:49.942Z,58.30
2022-09-15T00:11:59.949Z,46.00
2022-09-15T00:12:09.958Z,49.00
2022-09-15T00:12:20.930Z,51.80
2022-09-15T00:12:29.973Z,51.20
2022-09-15T00:12:39.938Z,52.90
2022-09-15T00:12:49.940Z,55.80
2022-09-15T00:12:59.943Z,56.50
2022-09-15T00:13:09.942Z,57.10
2022-09-15T00:13:19.953Z,62.20
2022-09-15T00:13:29.936Z,71.00
2022-09-15T00:13:39.932Z,70.60
2022-09-15T00:13:49.951Z,57.80
2022-09-15T00:14:00.953Z,45.00
2022-09-15T00:14:09.950Z,44.40
2022-09-15T00:14:19.941Z,46.10
2022-09-15T00:14:29.958Z,50.80
2022-09-15T00:14:39.927Z,54.80
2022-09-15T00:14:49.927Z,57.30
2022-09-15T00:14:59.924Z,51.80
2022-09-15T00:15:09.935Z,46.30
2022-09-15T00:15:20.934Z,47.80
2022-09-15T00:15:29.949Z,58.00
2022-09-15T00:15:39.968Z,60.60
2022-09-15T00:15:49.930Z,58.70
2022-09-15T00:15:59.928Z,58.00
2022-09-15T00:16:12.501Z,51.90
2022-09-15T00:16:19.994Z,46.10
2022-09-15T00:16:29.968Z,47.40
2022-09-15T00:16:40.039Z,50.20
2022-09-15T00:16:49.983Z,51.70
2022-09-15T00:17:00.019Z,51.00
2022-09-15T00:17:09.990Z,52.80
2022-09-15T00:17:19.942Z,62.20
2022-09-15T00:17:29.919Z,67.50
2022-09-15T00:17:39.913Z,73.30
2022-09-15T00:17:49.983Z,72.20
2022-09-15T00:18:00.026Z,66.10
2022-09-15T00:18:09.917Z,54.00
2022-09-15T00:18:20.386Z,43.50
2022-09-15T00:18:29.918Z,43.10
2022-09-15T00:18:39.938Z,48.30
2022-09-15T00:18:49.974Z,52.20
2022-09-15T00:19:00.017Z,55.00
2022-09-15T00:19:09.929Z,50.80
2022-09-15T00:19:19.917Z,57.20
2022-09-15T00:19:29.920Z,57.10
2022-09-15T00:19:39.992Z,58.00
2022-09-15T00:19:49.925Z,52.00
2022-09-15T00:19:59.924Z,58.60
2022-09-15T00:20:09.923Z,52.10
2022-09-15T00:20:19.909Z,60.90
2022-09-15T00:20:29.924Z,46.70
2022-09-15T00:20:39.903Z,56.60
2022-09-15T00:20:50.484Z,51.70
2022-09-15T00:20:59.925Z,59.10
2022-09-15T00:21:09.923Z,44.20
2022-09-15T00:21:19.904Z,43.10
2022-09-15T00:21:29.907Z,42.80
2022-09-15T00:21:39.908Z,50.70
2022-09-15T00:21:49.902Z,59.10
2022-09-15T00:21:59.900Z,58.70
2022-09-15T00:22:09.906Z,59.80
2022-09-15T00:22:19.902Z,51.00
2022-09-15T00:22:29.902Z,45.70
2022-09-15T00:22:39.904Z,42.80
2022-09-15T00:22:50.055Z,41.00
2022-09-15T00:22:59.966Z,39.80
2022-09-15T00:23:09.942Z,42.60
2022-09-15T00:23:19.889Z,49.80
2022-09-15T00:23:29.914Z,62.50
2022-09-15T00:23:39.886Z,54.80
2022-09-15T00:23:49.890Z,50.90
2022-09-15T00:23:59.892Z,54.10
2022-09-15T00:24:09.887Z,60.30
2022-09-15T00:24:19.885Z,61.60
2022-09-15T00:24:30.001Z,52.20
2022-09-15T00:24:39.883Z,50.40
2022-09-15T00:24:49.895Z,45.40
2022-09-15T00:24:59.922Z,45.00
2022-09-15T00:25:09.887Z,39.20
2022-09-15T00:25:19.889Z,39.40
2022-09-15T00:25:29.879Z,38.90
2022-09-15T00:25:39.910Z,38.70
2022-09-15T00:25:49.895Z,37.90
2022-09-15T00:25:59.970Z,38.30
2022-09-15T00:26:09.898Z,37.90
2022-09-15T00:26:19.879Z,37.50
2022-09-15T00:26:29.886Z,37.60
2022-09-15T00:26:39.896Z,37.20
2022-09-15T00:26:49.887Z,35.40
2022-09-15T00:27:00.523Z,32.80
2022-09-15T00:27:09.875Z,30.90
2022-09-15T00:27:20.447Z,31.70
2022-09-15T00:27:29.873Z,32.40
2022-09-15T00:27:40.426Z,34.40
2022-09-15T00:27:49.883Z,36.30
2022-09-15T00:27:59.873Z,35.00
2022-09-15T00:28:09.874Z,35.40
2022-09-15T00:28:19.867Z,36.20
2022-09-15T00:28:29.886Z,42.90
2022-09-15T00:28:39.877Z,35.70
2022-09-15T00:28:49.917Z,34.90
2022-09-15T00:28:59.870Z,36.40
2022-09-15T00:29:09.938Z,37.90
2022-09-15T00:29:19.901Z,35.20
2022-09-15T00:29:29.877Z,32.20
2022-09-15T00:29:39.871Z,29.30
2022-09-15T00:29:49.864Z,27.80
2022-09-15T00:29:59.878Z,27.50
2022-09-15T00:30:09.875Z,29.00
2022-09-15T00:30:19.854Z,29.00
2022-09-15T00:30:29.907Z,29.10
2022-09-15T00:30:39.917Z,30.90
2022-09-15T00:30:49.973Z,34.20
2022-09-15T00:30:59.913Z,39.10
2022-09-15T00:31:10.211Z,34.80
2022-09-15T00:31:19.938Z,33.90
2022-09-15T00:31:29.864Z,32.80
2022-09-15T00:31:39.883Z,34.30
2022-09-15T00:31:49.890Z,33.50
2022-09-15T00:31:59.849Z,35.00
2022-09-15T00:32:09.856Z,33.80
2022-09-15T00:32:19.919Z,34.30
2022-09-15T00:32:29.855Z,32.80
2022-09-15T00:32:39.862Z,34.70
2022-09-15T00:32:49.902Z,34.90
2022-09-15T00:32:59.858Z,40.10
2022-09-15T00:33:09.848Z,37.10
2022-09-15T00:33:19.902Z,45.20
2022-09-15T00:33:29.844Z,42.30
2022-09-15T00:33:39.848Z,44.60
2022-09-15T00:33:49.852Z,33.10
2022-09-15T00:33:59.854Z,31.70
2022-09-15T00:34:09.964Z,30.60
2022-09-15T00:34:19.850Z,32.50
2022-09-15T00:34:29.836Z,32.60
2022-09-15T00:34:39.953Z,32.90
2022-09-15T00:34:49.836Z,35.20
2022-09-15T00:34:59.842Z,36.10
2022-09-15T00:35:09.856Z,44.50
2022-09-15T00:35:19.838Z,36.70
2022-09-15T00:35:29.838Z,38.20
2022-09-15T00:35:39.880Z,47.50
2022-09-15T00:35:49.845Z,51.00
2022-09-15T00:35:59.873Z,55.50
2022-09-15T00:36:09.837Z,39.00
2022-09-15T00:36:19.989Z,49.50
2022-09-15T00:36:29.839Z,44.70
2022-09-15T00:36:39.863Z,46.50
2022-09-15T00:36:49.838Z,30.10
2022-09-15T00:37:00.471Z,30.40
2022-09-15T00:37:09.839Z,29.80
2022-09-15T00:37:19.838Z,32.30
2022-09-15T00:37:29.878Z,34.70
2022-09-15T00:37:39.827Z,40.40
2022-09-15T00:37:49.824Z,34.20
2022-09-15T00:37:59.848Z,31.10
2022-09-15T00:38:09.825Z,28.90
2022-09-15T00:38:19.851Z,30.10
2022-09-15T00:38:29.832Z,32.90
2022-09-15T00:38:39.823Z,35.50
2022-09-15T00:38:49.855Z,38.50
2022-09-15T00:38:59.822Z,38.20
2022-09-15T00:39:09.821Z,42.00
2022-09-15T00:39:19.833Z,37.30
2022-09-15T00:39:29.829Z,36.20
2022-09-15T00:39:39.824Z,31.90
2022-09-15T00:39:49.904Z,35.00
2022-09-15T00:39:59.884Z,34.50
2022-09-15T00:40:09.865Z,33.80
2022-09-15T00:40:19.888Z,32.50
2022-09-15T00:40:29.907Z,31.60
2022-09-15T00:40:40.435Z,36.20
2022-09-15T00:40:49.847Z,34.50
2022-09-15T00:40:59.814Z,34.20
2022-09-15T00:41:09.812Z,33.30
2022-09-15T00:41:19.839Z,47.50
2022-09-15T00:41:30.019Z,56.90
2022-09-15T00:41:39.852Z,55.10
2022-09-15T00:41:49.833Z,44.70
2022-09-15T00:41:59.811Z,35.50
2022-09-15T00:42:09.808Z,31.40
2022-09-15T00:42:19.836Z,31.90
2022-09-15T00:42:29.816Z,36.50
2022-09-15T00:42:40.451Z,37.20
2022-09-15T00:42:49.956Z,31.60
2022-09-15T00:42:59.804Z,29.90
2022-09-15T00:43:09.807Z,28.70
2022-09-15T00:43:19.813Z,26.70
2022-09-15T00:43:29.797Z,25.80
2022-09-15T00:43:39.855Z,27.40
2022-09-15T00:43:49.816Z,32.00
2022-09-15T00:43:59.962Z,38.30
2022-09-15T00:44:09.810Z,37.40
2022-09-15T00:44:19.797Z,31.20
2022-09-15T00:44:29.807Z,30.30
2022-09-15T00:44:40.443Z,29.10
2022-09-15T00:44:49.805Z,35.10
2022-09-15T00:44:59.801Z,29.30
2022-09-15T00:45:09.799Z,29.70
2022-09-15T00:45:19.801Z,27.80
2022-09-15T00:45:29.880Z,26.30
2022-09-15T00:45:39.884Z,26.50
2022-09-15T00:45:49.905Z,26.00
2022-09-15T00:45:59.855Z,29.00
2022-09-15T00:46:09.912Z,31.50
2022-09-15T00:46:19.852Z,37.00
2022-09-15T00:46:29.796Z,42.40
2022-09-15T00:46:39.846Z,37.50
2022-09-15T00:47:09.377Z,32.70
2022-09-15T00:47:18.330Z,32.50
2022-09-15T00:47:19.182Z,36.20
2022-09-15T00:47:20.153Z,39.70
2022-09-15T00:47:30.436Z,41.70
2022-09-15T00:47:39.790Z,42.60
2022-09-15T00:47:49.786Z,51.30
2022-09-15T00:47:59.800Z,56.30
2022-09-15T00:48:09.784Z,61.90
2022-09-15T00:48:20.440Z,61.10
2022-09-15T00:48:29.802Z,62.60
2022-09-15T00:48:39.786Z,61.10
2022-09-15T00:48:49.795Z,62.70
2022-09-15T00:48:59.786Z,69.00
2022-09-15T00:49:09.776Z,71.80
2022-09-15T00:49:19.799Z,80.90
2022-09-15T00:49:29.775Z,79.20
2022-09-15T00:49:39.773Z,80.10
2022-09-15T00:49:50.434Z,76.70
2022-09-15T00:49:59.836Z,78.90
2022-09-15T00:50:09.769Z,78.90
2022-09-15T00:50:19.785Z,78.60
2022-09-15T00:50:29.770Z,68.60
2022-09-15T00:50:39.789Z,65.90
2022-09-15T00:50:49.786Z,52.00
2022-09-15T00:50:59.773Z,47.50
2022-09-15T00:51:09.775Z,39.80
2022-09-15T00:51:19.810Z,48.60
2022-09-15T00:51:29.776Z,64.70
2022-09-15T00:51:39.770Z,73.20
2022-09-15T00:51:49.838Z,75.60
2022-09-15T00:51:59.769Z,67.70
2022-09-15T00:52:10.442Z,66.50
2022-09-15T00:52:19.763Z,70.80
2022-09-15T00:52:29.763Z,74.00
2022-09-15T00:52:39.773Z,71.40
2022-09-15T00:52:49.756Z,71.70
2022-09-15T00:52:59.762Z,69.10
2022-09-15T00:53:09.783Z,70.30
2022-09-15T00:53:19.765Z,65.60
2022-09-15T00:53:29.773Z,69.60
2022-09-15T00:53:39.783Z,68.00
2022-09-15T00:53:49.904Z,70.80
2022-09-15T00:53:59.775Z,74.70
2022-09-15T00:54:09.790Z,77.20
2022-09-15T00:54:19.763Z,78.40
2022-09-15T00:54:29.759Z,74.10
2022-09-15T00:54:39.786Z,72.30
2022-09-15T00:54:49.756Z,74.90
2022-09-15T00:54:59.861Z,75.70
2022-09-15T00:55:09.750Z,80.60
2022-09-15T00:55:19.752Z,82.90
2022-09-15T00:55:29.774Z,77.10
2022-09-15T00:55:39.761Z,72.10
2022-09-15T00:55:49.762Z,64.30
2022-09-15T00:55:59.756Z,67.40
2022-09-15T00:56:10.522Z,65.60
2022-09-15T00:56:19.748Z,56.50
2022-09-15T00:56:29.756Z,46.20
2022-09-15T00:56:39.744Z,43.60
2022-09-15T00:56:49.750Z,50.40
2022-09-15T00:56:59.874Z,59.00
2022-09-15T00:57:09.808Z,54.70
2022-09-15T00:57:19.740Z,47.30
2022-09-15T00:57:29.773Z,45.40
2022-09-15T00:57:39.738Z,42.60
2022-09-15T00:57:49.749Z,44.80
2022-09-15T00:57:59.758Z,44.60
2022-09-15T00:58:09.755Z,48.40
2022-09-15T00:58:19.791Z,55.50
2022-09-15T00:58:29.733Z,45.90
2022-09-15T00:58:39.740Z,44.30
2022-09-15T00:58:49.742Z,37.50
2022-09-15T00:58:59.736Z,39.70
2022-09-15T00:59:09.730Z,43.00
2022-09-15T00:59:19.746Z,44.90
2022-09-15T00:59:29.731Z,55.70
2022-09-15T00:59:40.448Z,66.20
2022-09-15T00:59:49.758Z,69.20
2022-09-15T00:59:59.735Z,57.60
2022-09-15T01:00:09.728Z,39.80
2022-09-15T01:00:19.757Z,36.70
2022-09-15T01:00:29.726Z,35.30
2022-09-15T01:00:39.735Z,43.40
2022-09-15T01:00:50.551Z,45.00
2022-09-15T01:00:59.761Z,43.30
2022-09-15T01:01:10.529Z,35.90
2022-09-15T01:01:19.769Z,36.60
2022-09-15T01:01:29.782Z,36.60
2022-09-15T01:01:39.763Z,36.20
2022-09-15T01:01:50.710Z,32.50
2022-09-15T01:01:59.769Z,29.90
2022-09-15T01:02:09.792Z,39.70
2022-09-15T01:02:19.816Z,41.70
2022-09-15T01:02:29.790Z,54.70
2022-09-15T01:02:39.793Z,55.80
2022-09-15T01:02:49.728Z,63.70
2022-09-15T01:02:59.715Z,67.40
2022-09-15T01:03:09.743Z,72.70
2022-09-15T01:03:19.719Z,66.60
2022-09-15T01:03:29.715Z,67.50
2022-09-15T01:03:39.721Z,65.10
2022-09-15T01:03:49.755Z,58.70
2022-09-15T01:03:59.719Z,50.30
2022-09-15T01:04:09.704Z,43.70
2022-09-15T01:04:19.726Z,53.90
2022-09-15T01:04:29.754Z,49.50
2022-09-15T01:04:39.728Z,44.90
2022-09-15T01:04:49.702Z,45.10
2022-09-15T01:04:59.725Z,54.20
2022-09-15T01:05:09.763Z,69.80
2022-09-15T01:05:19.732Z,75.70
2022-09-15T01:05:29.720Z,74.10
2022-09-15T01:05:39.704Z,75.30
2022-09-15T01:05:49.711Z,67.80
2022-09-15T01:05:59.722Z,66.30
2022-09-15T01:06:09.719Z,67.00
2022-09-15T01:06:19.703Z,75.90
2022-09-15T01:06:29.725Z,72.50
2022-09-15T01:06:39.801Z,66.50
2022-09-15T01:06:49.696Z,57.80
2022-09-15T01:06:59.717Z,68.70
2022-09-15T01:07:10.439Z,67.20
2022-09-15T01:07:19.734Z,64.00
2022-09-15T01:07:29.691Z,58.50
2022-09-15T01:07:39.692Z,66.20
2022-09-15T01:07:49.744Z,77.90
2022-09-15T01:07:59.693Z,80.10
2022-09-15T01:08:09.700Z,71.10
2022-09-15T01:08:19.710Z,56.00
2022-09-15T01:08:29.692Z,49.70
2022-09-15T01:08:40.490Z,50.90
2022-09-15T01:08:49.866Z,53.30
2022-09-15T01:08:59.698Z,67.30
2022-09-15T01:09:09.688Z,78.40
2022-09-15T01:09:19.690Z,94.60
2022-09-15T01:09:29.698Z,91.10
2022-09-15T01:09:40.506Z,87.70
2022-09-15T01:09:49.680Z,87.90
2022-09-15T01:09:59.686Z,89.20
2022-09-15T01:10:09.732Z,91.20
2022-09-15T01:10:19.685Z,83.80
2022-09-15T01:10:29.679Z,85.90
2022-09-15T01:10:39.703Z,87.00
2022-09-15T01:10:49.673Z,93.10
2022-09-15T01:10:59.693Z,93.90
2022-09-15T01:11:09.687Z,94.10
2022-09-15T01:11:19.684Z,91.80
2022-09-15T01:11:29.689Z,86.00
2022-09-15T01:11:39.707Z,88.60
2022-09-15T01:11:49.684Z,94.00
2022-09-15T01:11:59.689Z,100.80
2022-09-15T01:12:09.687Z,95.90
2022-09-15T01:12:19.671Z,88.50
2022-09-15T01:12:29.714Z,77.40
2022-09-15T01:12:39.709Z,71.30
2022-09-15T01:12:49.687Z,67.00
2022-09-15T01:12:59.670Z,60.90
2022-09-15T01:13:09.665Z,54.40
2022-09-15T01:13:19.681Z,52.40
2022-09-15T01:13:29.683Z,52.40
2022-09-15T01:13:39.671Z,64.10
2022-09-15T01:13:49.677Z,66.10
2022-09-15T01:14:00.444Z,73.50
2022-09-15T01:14:09.671Z,72.20
2022-09-15T01:14:19.671Z,64.90
2022-09-15T01:14:29.680Z,59.00
2022-09-15T01:14:39.668Z,50.10
2022-09-15T01:14:49.685Z,58.70
2022-09-15T01:14:59.659Z,55.50
2022-09-15T01:15:09.665Z,63.30
2022-09-15T01:15:19.680Z,54.00
2022-09-15T01:15:29.654Z,57.50
2022-09-15T01:15:39.661Z,52.00
2022-09-15T01:15:49.657Z,63.90
2022-09-15T01:15:59.731Z,65.30
2022-09-15T01:16:09.764Z,68.50
2022-09-15T01:16:19.745Z,67.00
2022-09-15T01:16:30.513Z,63.70
2022-09-15T01:16:39.761Z,55.80
2022-09-15T01:16:49.733Z,49.10
2022-09-15T01:17:00.445Z,49.70
2022-09-15T01:17:10.449Z,50.70
2022-09-15T01:17:19.652Z,54.80
2022-09-15T01:17:29.648Z,48.40
2022-09-15T01:17:39.726Z,53.60
2022-09-15T01:17:49.692Z,47.80
2022-09-15T01:17:59.642Z,55.60
2022-09-15T01:18:09.739Z,56.40
2022-09-15T01:18:19.665Z,63.00
2022-09-15T01:18:29.645Z,58.60
2022-09-15T01:18:39.641Z,63.10
2022-09-15T01:18:49.672Z,58.90
2022-09-15T01:19:00.446Z,56.90
2022-09-15T01:19:10.467Z,53.40
2022-09-15T01:19:19.647Z,52.70
2022-09-15T01:19:29.652Z,61.00
2022-09-15T01:19:39.669Z,59.40
2022-09-15T01:19:49.644Z,57.90
2022-09-15T01:19:59.665Z,57.30
2022-09-15T01:20:09.654Z,56.20
2022-09-15T01:20:19.640Z,69.30
2022-09-15T01:20:29.637Z,72.70
2022-09-15T01:20:39.643Z,73.10
2022-09-15T01:20:49.637Z,59.30
2022-09-15T01:20:59.641Z,52.10
2022-09-15T01:21:10.531Z,57.90
2022-09-15T01:21:19.641Z,61.30
2022-09-15T01:21:29.633Z,67.90
2022-09-15T01:21:39.634Z,61.60
2022-09-15T01:21:49.643Z,55.00
2022-09-15T01:21:59.632Z,51.00
2022-09-15T01:22:09.633Z,56.20
2022-09-15T01:22:19.628Z,57.20
2022-09-15T01:22:29.635Z,54.70
2022-09-15T01:22:39.626Z,51.90
2022-09-15T01:22:49.741Z,43.50
2022-09-15T01:22:59.695Z,39.30
2022-09-15T01:23:10.446Z,36.50
2022-09-15T01:23:19.627Z,46.90
2022-09-15T01:23:29.632Z,39.00
2022-09-15T01:23:39.647Z,38.70
2022-09-15T01:23:49.636Z,32.60
2022-09-15T01:23:59.619Z,32.20
2022-09-15T01:24:09.623Z,31.90
2022-09-15T01:24:19.614Z,39.00
2022-09-15T01:24:29.639Z,32.70
2022-09-15T01:24:39.621Z,32.40
2022-09-15T01:24:50.461Z,32.00
2022-09-15T01:24:59.616Z,34.90
2022-09-15T01:25:09.623Z,35.20
2022-09-15T01:25:19.785Z,39.60
2022-09-15T01:25:29.612Z,37.10
2022-09-15T01:25:39.713Z,32.70
2022-09-15T01:25:49.626Z,25.40
2022-09-15T01:25:59.612Z,25.60
2022-09-15T01:26:09.610Z,26.30
2022-09-15T01:26:19.635Z,25.00
2022-09-15T01:26:29.620Z,24.00
2022-09-15T01:26:39.609Z,23.90
2022-09-15T01:26:49.614Z,25.00
2022-09-15T01:26:59.604Z,26.00
2022-09-15T01:27:30.636Z,25.00
2022-09-15T01:27:40.947Z,23.50
2022-09-15T01:27:42.209Z,25.80
2022-09-15T01:27:42.532Z,25.30
2022-09-15T01:27:49.604Z,28.30
2022-09-15T01:28:00.005Z,30.20
2022-09-15T01:28:09.603Z,30.10
2022-09-15T01:28:19.599Z,27.90
2022-09-15T01:28:29.602Z,26.50
2022-09-15T01:28:39.616Z,34.70
2022-09-15T01:28:49.596Z,46.20
2022-09-15T01:28:59.617Z,48.60
2022-09-15T01:29:09.600Z,38.20
2022-09-15T01:29:21.687Z,38.20
2022-09-15T01:29:29.670Z,41.30
2022-09-15T01:29:39.600Z,45.20
2022-09-15T01:29:49.601Z,45.90
2022-09-15T01:29:59.591Z,42.40
2022-09-15T01:30:09.610Z,40.90
2022-09-15T01:30:19.662Z,37.70
2022-09-15T01:30:29.590Z,43.50
2022-09-15T01:30:39.587Z,45.80
2022-09-15T01:30:49.598Z,48.30
2022-09-15T01:30:59.593Z,43.50
2022-09-15T01:31:09.602Z,39.00
2022-09-15T01:31:19.673Z,38.60
2022-09-15T01:31:29.659Z,39.60
2022-09-15T01:31:39.625Z,45.10
2022-09-15T01:31:49.723Z,49.60
2022-09-15T01:31:59.687Z,43.00
2022-09-15T01:32:09.584Z,41.70
2022-09-15T01:32:19.590Z,39.80
2022-09-15T01:32:29.589Z,39.30
2022-09-15T01:32:39.596Z,41.30
2022-09-15T01:32:49.595Z,34.80
2022-09-15T01:32:59.574Z,37.40
2022-09-15T01:33:09.638Z,32.50
2022-09-15T01:33:19.579Z,31.50
2022-09-15T01:33:29.604Z,24.90
2022-09-15T01:33:39.652Z,20.40
2022-09-15T01:33:49.722Z,20.80
2022-09-15T01:33:59.570Z,22.50
2022-09-15T01:34:09.580Z,38.50
2022-09-15T01:34:19.593Z,29.50
2022-09-15T01:34:29.571Z,31.40
2022-09-15T01:34:39.588Z,22.70
2022-09-15T01:34:49.600Z,22.60
2022-09-15T01:34:59.566Z,21.10
2022-09-15T01:35:09.571Z,26.20
2022-09-15T01:35:19.573Z,31.70
2022-09-15T01:35:29.584Z,33.70
2022-09-15T01:35:40.448Z,27.30
2022-09-15T01:35:49.578Z,31.50
2022-09-15T01:36:00.517Z,33.60
2022-09-15T01:36:09.573Z,39.90
2022-09-15T01:36:19.561Z,37.30
2022-09-15T01:36:29.582Z,43.10
2022-09-15T01:36:39.557Z,60.60
2022-09-15T01:36:49.584Z,61.10
2022-09-15T01:36:59.577Z,59.20
2022-09-15T01:37:09.561Z,35.40
2022-09-15T01:37:19.555Z,34.80
2022-09-15T01:37:29.560Z,27.40
2022-09-15T01:37:39.568Z,42.90
2022-09-15T01:37:49.645Z,39.10
2022-09-15T01:37:59.578Z,47.80
2022-09-15T01:38:09.591Z,23.90
2022-09-15T01:38:20.450Z,16.50
2022-09-15T01:38:29.560Z,9.50
2022-09-15T01:38:39.569Z,9.30
2022-09-15T01:38:49.553Z,10.50
2022-09-15T01:38:59.552Z,11.40
2022-09-15T01:39:09.550Z,11.60
2022-09-15T01:39:19.576Z,11.40
2022-09-15T01:39:29.549Z,11.20
2022-09-15T01:39:39.571Z,10.90
2022-09-15T01:39:50.511Z,10.10
2022-09-15T01:39:59.687Z,10.70
2022-09-15T01:40:09.604Z,11.10
2022-09-15T01:40:19.640Z,12.10
2022-09-15T01:40:29.601Z,11.20
2022-09-15T01:40:39.550Z,10.70
2022-09-15T01:40:49.557Z,9.80
2022-09-15T01:40:59.554Z,9.60
2022-09-15T01:41:09.587Z,10.00
2022-09-15T01:41:19.543Z,9.50
2022-09-15T01:41:29.550Z,10.00
2022-09-15T01:41:40.453Z,9.60
2022-09-15T01:41:49.565Z,9.40
2022-09-15T01:42:00.451Z,10.90
2022-09-15T01:42:09.546Z,10.40
2022-09-15T01:42:19.567Z,10.10
2022-09-15T01:42:30.482Z,9.20
2022-09-15T01:42:39.541Z,9.10
2022-09-15T01:42:49.537Z,9.80
2022-09-15T01:42:59.565Z,9.20
2022-09-15T01:43:09.534Z,9.80
2022-09-15T01:43:19.538Z,9.30
2022-09-15T01:43:29.616Z,9.70
2022-09-15T01:43:39.526Z,8.40
2022-09-15T01:43:50.501Z,8.30
2022-09-15T01:44:00.455Z,8.70
2022-09-15T01:44:09.530Z,8.60
2022-09-15T01:44:19.540Z,9.40
2022-09-15T01:44:29.626Z,9.20
2022-09-15T01:44:39.533Z,9.90
2022-09-15T01:44:49.544Z,8.80
2022-09-15T01:44:59.588Z,8.60
2022-09-15T01:45:09.525Z,7.90
2022-09-15T01:45:19.549Z,7.90
2022-09-15T01:45:29.615Z,7.80
2022-09-15T01:45:39.577Z,8.70
2022-09-15T01:45:50.578Z,9.20
2022-09-15T01:46:00.593Z,9.70
2022-09-15T01:46:09.696Z,9.10
2022-09-15T01:46:19.517Z,10.10
2022-09-15T01:46:30.463Z,12.10
2022-09-15T01:46:39.539Z,11.80
2022-09-15T01:46:49.523Z,8.90
2022-09-15T01:46:59.517Z,8.00
2022-09-15T01:47:09.568Z,8.50
2022-09-15T01:47:19.521Z,9.10
2022-09-15T01:47:29.523Z,10.60
2022-09-15T01:47:39.526Z,10.40
2022-09-15T01:47:49.526Z,8.60
2022-09-15T01:47:59.521Z,8.20
2022-09-15T01:48:10.466Z,9.10
2022-09-15T01:48:19.524Z,9.30
2022-09-15T01:48:29.579Z,16.20
2022-09-15T01:48:39.577Z,12.50
2022-09-15T01:48:49.507Z,12.20
2022-09-15T01:48:59.521Z,9.00
2022-09-15T01:49:09.503Z,9.20
2022-09-15T01:49:19.515Z,9.10
2022-09-15T01:49:29.538Z,9.10
2022-09-15T01:49:39.510Z,9.50
2022-09-15T01:49:49.517Z,9.90
2022-09-15T01:49:59.681Z,10.60
2022-09-15T01:50:09.513Z,10.10
2022-09-15T01:50:19.659Z,9.90
2022-09-15T01:50:29.520Z,10.20
2022-09-15T01:50:39.501Z,10.60
2022-09-15T01:50:49.528Z,12.00
2022-09-15T01:50:59.522Z,11.90
2022-09-15T01:51:09.508Z,11.70
2022-09-15T01:51:19.499Z,11.10
2022-09-15T01:51:29.536Z,10.60
2022-09-15T01:51:39.495Z,11.00
2022-09-15T01:51:49.498Z,11.80
2022-09-15T01:51:59.494Z,11.10
2022-09-15T01:52:09.517Z,13.50
2022-09-15T01:52:22.623Z,18.30
2022-09-15T01:52:29.493Z,16.30
2022-09-15T01:52:39.511Z,13.50
2022-09-15T01:52:49.498Z,14.40
2022-09-15T01:52:59.492Z,14.00
2022-09-15T01:53:10.501Z,11.50
2022-09-15T01:53:19.497Z,10.50
2022-09-15T01:53:29.490Z,11.00
2022-09-15T01:53:39.505Z,11.30
2022-09-15T01:53:49.557Z,11.10
2022-09-15T01:53:59.490Z,10.90
2022-09-15T01:54:09.484Z,10.80
2022-09-15T01:54:19.534Z,10.80
2022-09-15T01:54:29.480Z,11.60
2022-09-15T01:54:40.515Z,12.50
2022-09-15T01:54:49.479Z,13.60
2022-09-15T01:54:59.488Z,13.60
2022-09-15T01:55:09.479Z,15.30
2022-09-15T01:55:19.475Z,17.60
2022-09-15T01:55:29.486Z,15.10
2022-09-15T01:55:39.486Z,14.90
2022-09-15T01:55:49.478Z,15.60
2022-09-15T01:55:59.491Z,15.60
2022-09-15T01:56:09.494Z,16.50
2022-09-15T01:56:19.471Z,16.20
2022-09-15T01:56:29.565Z,16.80
2022-09-15T01:56:39.478Z,16.80
2022-09-15T01:56:49.482Z,17.30
2022-09-15T01:56:59.479Z,17.50
2022-09-15T01:57:09.481Z,16.20
2022-09-15T01:57:19.487Z,15.60
2022-09-15T01:57:29.474Z,16.30
2022-09-15T01:57:39.540Z,17.20
2022-09-15T01:57:49.469Z,18.60
2022-09-15T01:57:59.466Z,19.30
2022-09-15T01:58:09.468Z,21.20
2022-09-15T01:58:19.472Z,18.80
2022-09-15T01:58:30.495Z,18.80
2022-09-15T01:58:39.470Z,19.10
2022-09-15T01:58:49.487Z,18.80
2022-09-15T01:59:00.118Z,18.40
2022-09-15T01:59:10.460Z,17.40
2022-09-15T01:59:19.466Z,16.40
2022-09-15T01:59:29.474Z,16.70
2022-09-15T01:59:39.479Z,18.70
2022-09-15T01:59:49.463Z,27.80
2022-09-15T01:59:59.966Z,31.90
2022-09-15T02:00:09.462Z,30.50
2022-09-15T02:00:19.457Z,20.30
2022-09-15T02:00:29.449Z,19.40
2022-09-15T02:00:39.526Z,19.70
2022-09-15T02:00:49.500Z,30.10
2022-09-15T02:00:59.514Z,30.40
2022-09-15T02:01:09.552Z,23.40
2022-09-15T02:01:19.487Z,19.40
2022-09-15T02:01:30.053Z,18.60
2022-09-15T02:01:39.599Z,18.90
2022-09-15T02:01:49.482Z,19.40
2022-09-15T02:01:59.648Z,19.20
2022-09-15T02:02:09.517Z,18.70
2022-09-15T02:02:19.518Z,18.50
2022-09-15T02:02:29.666Z,19.00
2022-09-15T02:02:39.963Z,19.80
2022-09-15T02:02:49.438Z,20.90
2022-09-15T02:02:59.482Z,25.00
2022-09-15T02:03:09.449Z,25.90
2022-09-15T02:03:19.466Z,23.50
2022-09-15T02:03:29.451Z,23.20
2022-09-15T02:03:39.452Z,21.40
2022-09-15T02:03:49.435Z,22.70
2022-09-15T02:03:59.445Z,23.70
2022-09-15T02:04:09.573Z,22.00
2022-09-15T02:04:19.435Z,22.90
2022-09-15T02:04:29.447Z,26.20
2022-09-15T02:04:39.453Z,26.40
2022-09-15T02:04:49.566Z,30.50
2022-09-15T02:04:59.450Z,31.20
2022-09-15T02:05:09.446Z,36.80
2022-09-15T02:05:19.470Z,34.50
2022-09-15T02:05:29.437Z,26.00
2022-09-15T02:05:39.435Z,21.90
2022-09-15T02:05:49.427Z,20.90
2022-09-15T02:05:59.498Z,20.70
2022-09-15T02:06:09.464Z,21.50
2022-09-15T02:06:19.427Z,21.50
2022-09-15T02:06:29.431Z,22.40
2022-09-15T02:06:39.448Z,21.00
2022-09-15T02:06:49.498Z,21.30
2022-09-15T02:06:59.512Z,21.20
2022-09-15T02:07:09.421Z,21.30
2022-09-15T02:07:19.431Z,20.00
2022-09-15T02:07:29.424Z,19.10
2022-09-15T02:07:39.424Z,18.80
2022-09-15T02:07:49.423Z,19.00
2022-09-15T02:07:59.428Z,18.70
2022-09-15T02:08:09.422Z,19.60
2022-09-15T02:08:19.425Z,20.30
2022-09-15T02:08:29.445Z,23.60
2022-09-15T02:08:39.517Z,22.10
2022-09-15T02:08:49.420Z,21.50
2022-09-15T02:08:59.479Z,20.40
2022-09-15T02:09:09.410Z,20.40